Time;durP1;ratioP1;P1;durP2;ratioP2;P2;SDS_P1;SDS_P2;PMS_P1;PMS_P2;Temp;Humidity;BMP_temperature;BMP_pressure;BME280_temperature;BME280_humidity;BME280_pressure;Samples;Min_cycle;Max_cycle;Signal;HPM_P1;HPM_P2
2021/05/09 00:00:24;;;;;;;5.50;4.00;;;;;;;3.87;66.21;97815.10;1821495;79;23363;-80
2021/05/09 00:03:01;;;;;;;5.42;3.77;;;;;;;3.83;66.44;97815.69;1825200;77;22981;-79
2021/05/09 00:05:38;;;;;;;8.78;4.00;;;;;;;3.81;66.77;97814.06;1834473;76;28085;-79
2021/05/09 00:08:15;;;;;;;5.83;3.52;;;;;;;3.96;66.88;97815.19;1803154;79;28218;-78
2021/05/09 00:10:53;;;;;;;6.62;3.77;;;;;;;4.10;67.56;97814.13;1834641;76;28066;-80
2021/05/09 00:13:30;;;;;;;6.05;3.25;;;;;;;4.24;67.24;97814.84;1825526;77;23037;-79
2021/05/09 00:16:08;;;;;;;5.90;3.83;;;;;;;4.19;66.87;97812.91;1822128;77;38631;-78
2021/05/09 00:18:47;;;;;;;7.85;3.87;;;;;;;4.37;66.84;97814.72;1782024;79;22906;-80
2021/05/09 00:21:23;;;;;;;5.50;3.58;;;;;;;4.30;66.57;97817.20;1812860;78;23492;-79
2021/05/09 00:24:00;;;;;;;7.33;4.30;;;;;;;4.18;66.66;97818.56;1834282;76;28110;-80
2021/05/09 00:26:37;;;;;;;6.70;4.03;;;;;;;4.27;66.54;97826.47;1834760;76;28080;-79
2021/05/09 00:29:14;;;;;;;6.75;4.20;;;;;;;4.30;66.63;97821.56;1778263;79;28186;-80
2021/05/09 00:31:53;;;;;;;5.08;3.72;;;;;;;4.33;66.66;97821.44;1818852;79;23094;-79
2021/05/09 00:34:30;;;;;;;7.12;4.92;;;;;;;4.14;66.61;97827.45;1810169;77;38471;-78
2021/05/09 00:37:09;;;;;;;4.78;3.42;;;;;;;4.21;66.35;97831.96;1776929;79;22923;-80
2021/05/09 00:39:48;;;;;;;7.00;4.10;;;;;;;4.04;66.62;97833.97;1762362;79;23050;-80
2021/05/09 00:42:32;;;;;;;5.00;3.27;;;;;;;3.90;66.54;97830.16;1811685;79;23039;-80
2021/05/09 00:45:09;;;;;;;5.57;3.40;;;;;;;3.80;66.40;97822.35;1860917;76;31094;-79
2021/05/09 00:47:49;;;;;;;5.30;3.37;;;;;;;3.86;66.99;97822.53;1775591;79;23079;-80
2021/05/09 01:00:50;;;;;;;4.78;3.08;;;;;;;3.59;67.24;97828.83;1833117;77;22641;-79
2021/05/09 01:03:29;;;;;;;7.05;3.42;;;;;;;3.60;67.38;97823.15;1851241;77;22776;-79
2021/05/09 01:06:06;;;;;;;5.20;3.27;;;;;;;3.64;67.00;97823.43;1781692;79;23059;-79
2021/05/09 01:08:52;;;;;;;6.08;3.65;;;;;;;3.56;67.17;97833.33;1781885;79;23037;-79
2021/05/09 01:11:29;;;;;;;4.47;3.17;;;;;;;3.61;67.09;97833.97;1778225;79;23383;-79
2021/05/09 01:14:08;;;;;;;4.37;2.77;;;;;;;3.64;68.16;97832.56;1755697;79;23494;-79
2021/05/09 01:16:45;;;;;;;4.72;3.33;;;;;;;3.64;67.13;97832.56;1834193;76;28091;-79
2021/05/09 01:19:25;;;;;;;5.78;3.02;;;;;;;3.86;67.16;97834.27;1821842;79;22940;-79
2021/05/09 01:22:05;;;;;;;5.87;3.23;;;;;;;3.70;67.15;97831.46;1803759;79;28083;-80
2021/05/09 01:24:43;;;;;;;6.42;3.17;;;;;;;3.86;66.85;97830.35;1782537;79;22533;-80
2021/05/09 01:27:22;;;;;;;4.08;2.98;;;;;;;3.69;66.87;97833.20;1844656;77;23516;-79
2021/05/09 01:30:00;;;;;;;4.05;2.80;;;;;;;3.58;67.12;97832.78;1830895;77;23014;-79
2021/05/09 01:32:39;;;;;;;3.87;2.77;;;;;;;3.49;67.11;97830.55;1822047;79;22983;-79
2021/05/09 01:35:17;;;;;;;6.65;2.87;;;;;;;3.41;67.05;97836.08;1826165;77;23022;-80
2021/05/09 01:37:55;;;;;;;6.85;3.00;;;;;;;3.33;66.94;97828.55;1765483;79;23098;-80
2021/05/09 01:40:33;;;;;;;7.17;3.77;;;;;;;3.23;67.22;97836.34;1818444;79;23059;-80
2021/05/09 01:43:21;;;;;;;6.62;3.77;;;;;;;3.16;67.37;97833.58;1782096;79;22960;-79
2021/05/09 01:45:58;;;;;;;5.30;3.75;;;;;;;3.09;67.07;97837.73;1860579;76;28179;-79
2021/05/09 01:48:37;;;;;;;5.53;4.17;;;;;;;3.21;67.48;97835.10;1821533;77;23016;-79
2021/05/09 01:51:15;;;;;;;6.17;3.00;;;;;;;3.11;67.30;97833.28;1821762;79;22614;-79
2021/05/09 01:53:53;;;;;;;4.90;3.00;;;;;;;3.07;67.60;97843.45;1802849;79;28111;-79
2021/05/09 01:56:33;;;;;;;3.77;2.37;;;;;;;3.18;68.00;97843.02;1852434;77;23008;-80
2021/05/09 01:59:13;;;;;;;5.45;2.60;;;;;;;3.12;67.79;97849.31;1814307;77;23515;-79
2021/05/09 02:01:53;;;;;;;4.37;2.65;;;;;;;3.11;68.29;97848.08;1825908;77;22956;-79
2021/05/09 02:04:38;;;;;;;4.50;2.52;;;;;;;3.11;68.01;97850.22;1822079;79;22934;-80
2021/05/09 02:07:17;;;;;;;4.85;2.80;;;;;;;3.14;68.03;97853.19;1769865;79;22851;-79
2021/05/09 02:09:57;;;;;;;4.22;2.67;;;;;;;3.16;68.67;97847.44;1838229;77;23059;-79
2021/05/09 02:12:36;;;;;;;4.72;3.00;;;;;;;3.17;68.12;97853.05;1825981;77;23048;-80
2021/05/09 02:15:14;;;;;;;4.78;3.00;;;;;;;3.22;68.11;97846.36;1825466;77;23014;-79
2021/05/09 02:17:52;;;;;;;4.55;3.08;;;;;;;3.24;67.84;97844.11;1811142;79;22793;-79
2021/05/09 02:20:34;;;;;;;5.35;2.98;;;;;;;3.19;67.61;97849.10;1802611;79;23081;-79
2021/05/09 02:23:19;;;;;;;6.42;3.85;;;;;;;3.11;68.33;97856.73;1817315;77;28206;-79
2021/05/09 02:25:57;;;;;;;6.50;3.45;;;;;;;3.27;67.49;97856.17;1760176;79;23097;-78
2021/05/09 02:28:34;;;;;;;5.92;3.62;;;;;;;3.19;67.65;97856.45;1824324;78;23013;-78
2021/05/09 02:31:15;;;;;;;5.87;3.02;;;;;;;3.15;67.81;97855.33;1780830;79;23344;-79
2021/05/09 02:33:54;;;;;;;5.25;3.30;;;;;;;3.02;67.09;97851.87;1758898;79;23181;-80
2021/05/09 02:36:31;;;;;;;4.47;2.80;;;;;;;2.90;67.62;97857.56;1848044;76;21250;-78
2021/05/09 02:39:13;;;;;;;4.45;2.90;;;;;;;2.82;68.00;97866.95;1853029;77;23017;-79
2021/05/09 02:41:51;;;;;;;4.10;2.92;;;;;;;2.75;67.68;97865.02;1826036;77;22517;-78
2021/05/09 02:44:29;;;;;;;7.10;2.80;;;;;;;2.70;68.14;97868.25;1820809;77;23030;-80
2021/05/09 02:47:06;;;;;;;5.72;3.15;;;;;;;2.65;68.35;97871.02;1780723;79;28597;-79
2021/05/09 02:49:44;;;;;;;5.62;3.08;;;;;;;2.74;67.84;97861.17;1840814;77;23511;-79
2021/05/09 02:52:23;;;;;;;6.65;3.20;;;;;;;2.64;68.04;97861.97;1821137;76;23026;-79
2021/05/09 02:55:07;;;;;;;4.80;3.20;;;;;;;2.59;68.08;97872.55;1781107;79;22891;-79
2021/05/09 02:57:45;;;;;;;4.25;2.62;;;;;;;2.60;68.13;97875.98;1840755;77;23053;-79
2021/05/09 03:00:23;;;;;;;5.85;3.30;;;;;;;2.59;68.17;97880.36;1834785;76;28100;-80
2021/05/09 03:03:05;;;;;;;5.05;3.05;;;;;;;2.75;68.87;97879.33;1826023;77;23042;-79
2021/05/09 03:05:42;;;;;;;6.37;3.05;;;;;;;2.75;68.82;97885.00;1803661;79;38397;-80
2021/05/09 03:08:19;;;;;;;5.27;2.83;;;;;;;2.97;69.04;97883.77;1782624;79;28175;-80
2021/05/09 03:10:58;;;;;;;4.03;2.70;;;;;;;3.17;69.16;97892.13;1821728;79;22938;-78
2021/05/09 03:13:38;;;;;;;4.28;3.17;;;;;;;3.11;68.75;97891.91;1822492;77;22721;-80
2021/05/09 03:16:14;;;;;;;5.72;3.30;;;;;;;3.13;68.95;97898.37;1802490;79;28510;-79
2021/05/09 03:18:51;;;;;;;4.78;3.08;;;;;;;3.29;68.14;97896.05;1803878;79;28087;-79
2021/05/09 03:21:28;;;;;;;4.20;3.22;;;;;;;3.40;68.17;97898.23;1851062;76;21306;-79
2021/05/09 03:24:06;;;;;;;5.35;3.40;;;;;;;3.30;67.88;97906.84;1834353;76;28071;-79
2021/05/09 03:26:43;;;;;;;4.92;3.33;;;;;;;3.43;67.59;97908.55;1826079;77;22547;-80
2021/05/09 03:29:20;;;;;;;4.40;3.40;;;;;;;3.35;67.61;97915.79;1834514;76;30999;-78
2021/05/09 03:31:56;;;;;;;5.75;3.67;;;;;;;3.46;67.40;97919.31;1788956;79;28303;-80
2021/05/09 03:34:35;;;;;;;5.50;3.55;;;;;;;3.56;67.32;97921.50;1834808;76;28054;-78
2021/05/09 03:37:15;;;;;;;7.42;3.65;;;;;;;3.65;66.99;97924.21;1836370;77;23077;-80
2021/05/09 03:39:52;;;;;;;6.22;3.22;;;;;;;3.55;67.06;97926.31;1807953;77;28117;-80
2021/05/09 03:42:30;;;;;;;6.37;3.00;;;;;;;3.65;67.08;97924.21;1825632;77;23006;-79
2021/05/09 03:45:09;;;;;;;4.95;2.83;;;;;;;3.59;67.07;97930.95;1825578;77;23012;-78
2021/05/09 03:47:49;;;;;;;5.35;2.72;;;;;;;3.55;67.07;97927.61;1825800;77;23013;-79
2021/05/09 03:50:25;;;;;;;4.47;2.80;;;;;;;3.61;67.22;97929.14;1836260;77;28150;-79
2021/05/09 03:53:02;;;;;;;6.03;2.60;;;;;;;3.86;67.09;97932.94;1834448;76;28074;-80
2021/05/09 03:55:40;;;;;;;5.37;2.77;;;;;;;4.12;66.66;97926.29;1780872;79;23040;-79
2021/05/09 03:58:20;;;;;;;5.25;2.77;;;;;;;4.23;66.34;97929.28;1781174;79;23387;-79
2021/05/09 04:00:56;;;;;;;4.62;2.40;;;;;;;4.57;66.58;97932.24;1852714;77;22613;-80
2021/05/09 04:03:37;;;;;;;3.27;2.45;;;;;;;5.19;65.93;97929.10;1848384;76;23614;-78
2021/05/09 04:06:19;;;;;;;5.00;2.47;;;;;;;5.95;63.82;97937.36;1766483;79;22729;-80
2021/05/09 04:08:57;;;;;;;5.80;2.60;;;;;;;6.67;62.29;97934.30;1835347;76;28114;-77
2021/05/09 04:11:34;;;;;;;3.30;2.22;;;;;;;7.27;60.81;97930.31;1826597;77;23060;-80
2021/05/09 04:14:18;;;;;;;3.75;2.22;;;;;;;8.00;59.29;97934.23;1826707;77;23009;-80
2021/05/09 04:16:56;;;;;;;2.90;2.27;;;;;;;8.59;56.73;97930.88;1801249;79;23051;-81
2021/05/09 04:19:33;;;;;;;4.25;2.30;;;;;;;9.18;56.22;97932.64;1819632;79;22325;-80
2021/05/09 04:22:10;;;;;;;4.20;2.60;;;;;;;9.76;54.62;97933.91;1834869;76;28042;-83
2021/05/09 04:24:47;;;;;;;3.85;2.47;;;;;;;10.42;51.91;97932.76;1761204;79;28312;-80
2021/05/09 04:27:23;;;;;;;4.33;2.60;;;;;;;11.05;49.72;97930.30;1823222;76;28519;-82
2021/05/09 04:30:00;;;;;;;4.15;2.67;;;;;;;11.73;47.53;97934.80;1836200;76;28100;-82
2021/05/09 04:32:37;;;;;;;5.90;2.85;;;;;;;12.45;45.87;97937.95;1833377;76;28169;-82
2021/05/09 04:35:14;;;;;;;7.28;3.10;;;;;;;13.16;43.21;97939.68;1834843;77;28322;-81
2021/05/09 04:37:52;;;;;;;4.65;2.83;;;;;;;13.73;41.41;97920.66;1793085;79;23111;-82
2021/05/09 04:40:30;;;;;;;4.92;3.05;;;;;;;14.42;41.28;97939.03;1830944;76;28091;-81
2021/05/09 04:43:10;;;;;;;4.20;2.42;;;;;;;15.07;39.78;97942.44;1818816;79;23306;-81
2021/05/09 04:45:50;;;;;;;5.53;2.85;;;;;;;15.60;37.66;97934.78;1809404;79;22618;-81
2021/05/09 04:48:28;;;;;;;5.83;3.00;;;;;;;15.77;38.23;97938.62;1775713;79;23086;-84
2021/05/09 04:51:06;;;;;;;4.05;2.83;;;;;;;15.95;36.99;97935.34;1824251;77;23027;-79
2021/05/09 04:53:45;;;;;;;5.45;3.12;;;;;;;16.19;34.94;97940.25;1802704;79;28114;-82
2021/05/09 04:56:22;;;;;;;9.30;3.17;;;;;;;16.65;36.46;97939.22;1824333;77;23028;-80
2021/05/09 04:59:01;;;;;;;4.33;2.42;;;;;;;16.90;35.01;97947.59;1839867;77;23067;-81
2021/05/09 05:01:37;;;;;;;4.75;3.17;;;;;;;17.33;34.04;97941.42;1825937;77;28019;-84
2021/05/09 05:04:16;;;;;;;6.55;2.87;;;;;;;17.74;33.69;97939.30;1856974;77;23057;-81
2021/05/09 05:06:53;;;;;;;4.97;2.83;;;;;;;17.91;32.72;97939.48;1833018;76;28095;-83
2021/05/09 05:09:31;;;;;;;4.08;3.00;;;;;;;18.34;32.95;97943.80;1850919;77;23499;-84
2021/05/09 05:12:12;;;;;;;10.20;2.52;;;;;;;18.41;31.68;97941.72;1815628;77;23497;-85
2021/05/09 05:14:49;;;;;;;4.83;2.72;;;;;;;18.70;31.39;97941.11;1827935;76;23083;-84
2021/05/09 05:17:25;;;;;;;8.98;3.20;;;;;;;19.04;32.50;97947.06;1833000;76;28084;-81
2021/05/09 05:20:03;;;;;;;5.70;3.10;;;;;;;19.22;30.24;97947.03;1801862;79;28127;-85
2021/05/09 05:22:40;;;;;;;;;;;;;;;19.48;29.46;97954.19;1826320;77;23526;-83
2021/05/09 05:25:17;;;;;;;;;;;;;;;19.64;28.94;97946.23;1822270;77;23019;-84
2021/05/09 05:27:59;;;;;;;;;;;;;;;20.03;28.25;97948.08;1826855;77;23473;-81
2021/05/09 05:30:36;;;;;;;;;;;;;;;20.34;28.31;97947.50;1834774;77;23057;-84
2021/05/09 05:33:35;;;;;;;4.47;3.20;;;;;;;20.37;29.00;97945.32;1808412;77;28158;-85
2021/05/09 05:36:12;;;;;;;;;;;;;;;20.59;27.25;97953.20;1822848;77;23046;-84
2021/05/09 05:38:49;;;;;;;;;;;;;;;20.33;28.44;97959.20;1782929;79;23459;-82
2021/05/09 05:41:28;;;;;;;;;;;;;;;19.96;31.18;97957.25;1792540;79;23053;-84
2021/05/09 05:44:09;;;;;;;;;;;;;;;19.74;29.57;97954.62;1814610;77;23097;-81
2021/05/09 05:46:48;;;;;;;;;;;;;;;19.58;32.33;97948.22;1818316;79;22764;-83
2021/05/09 05:49:24;;;;;;;;;;;;;;;19.82;32.93;97955.52;1826820;77;23161;-83
2021/05/09 05:52:01;;;;;;;;;;;;;;;19.97;29.26;97961.13;1836613;77;23062;-82
2021/05/09 05:54:38;;;;;;;4.97;2.60;;;;;;;20.28;32.17;97949.81;1782553;77;28552;-84
2021/05/09 05:57:15;;;;;;;3.85;2.52;;;;;;;20.22;27.36;97949.14;1833087;76;28561;-86
2021/05/09 05:59:52;;;;;;;4.87;2.25;;;;;;;20.22;27.19;97954.49;1832965;76;28109;-83
2021/05/09 06:02:32;;;;;;;;;;;;;;;20.40;26.87;97956.20;1853740;77;23446;-85
2021/05/09 06:05:09;;;;;;;;;;;;;;;19.70;28.75;97957.31;1782228;79;23051;-84
2021/05/09 06:07:46;;;;;;;4.20;2.12;;;;;;;19.32;27.74;97958.45;1806815;77;38472;-82
2021/05/09 06:10:23;;;;;;;3.58;2.50;;;;;;;19.31;27.75;97954.09;1801905;79;38984;-80
2021/05/09 06:13:05;;;;;;;;;;;;;;;18.41;28.32;97962.20;1826245;77;22628;-84
2021/05/09 06:15:42;;;;;;;;;;;;;;;17.64;29.21;97959.32;1811030;79;22645;-81
2021/05/09 06:18:20;;;;;;;5.20;2.47;;;;;;;17.47;30.09;97968.09;1808431;77;28187;-85
2021/05/09 06:20:57;;;;;;;3.08;1.95;;;;;;;18.05;29.18;97961.66;1820757;75;21302;-80
2021/05/09 06:23:34;;;;;;;2.67;1.80;;;;;;;18.12;28.87;97965.09;1840541;77;22895;-78
2021/05/09 06:26:12;;;;;;;4.17;2.77;;;;;;;17.36;29.24;97974.92;1832220;75;28211;-82
2021/05/09 06:28:49;;;;;;;;;;;;;;;17.29;29.96;97974.69;1820960;77;23425;-79
2021/05/09 06:31:26;;;;;;;;;;;;;;;17.58;30.70;97975.08;1834189;77;22875;-83
2021/05/09 06:34:09;;;;;;;6.67;4.00;;;;;;;18.06;31.36;97970.02;1820608;77;23708;-84
2021/05/09 06:36:58;;;;;;;5.87;2.90;;;;;;;18.39;30.65;97977.53;1725614;83;21197;-88
2021/05/09 06:39:35;;;;;;;;;;;;;;;18.47;29.57;97968.77;1826402;77;22927;-88
2021/05/09 06:42:12;;;;;;;3.52;2.83;;;;;;;18.14;29.98;97960.45;1818644;77;22750;-85
2021/05/09 06:44:58;;;;;;;4.15;3.27;;;;;;;17.86;30.81;97975.10;1823201;77;23146;-86
2021/05/09 06:47:32;;;;;;;3.52;2.22;;;;;;;17.56;32.09;97969.05;1824298;77;22686;-81
2021/05/09 06:50:13;;;;;;;7.35;3.37;;;;;;;17.53;32.35;97974.19;1823996;77;22637;-86
2021/05/09 06:52:50;;;;;;;5.80;3.40;;;;;;;17.72;32.35;97977.26;1801031;79;28427;-85
2021/05/09 06:55:37;;;;;;;;;;;;;;;17.88;32.31;97970.44;1852810;76;23052;-83
2021/05/09 06:58:23;;;;;;;6.30;4.25;;;;;;;17.64;32.91;97965.98;1848123;77;23486;-82
2021/05/09 07:01:00;;;;;;;6.70;3.33;;;;;;;17.80;32.66;97969.86;1818943;77;23484;-85
2021/05/09 07:03:40;;;;;;;9.80;3.80;;;;;;;17.56;32.84;97971.72;1824287;77;22599;-86
2021/05/09 07:06:20;;;;;;;6.95;3.58;;;;;;;17.45;32.83;97973.58;1850593;77;23471;-86
2021/05/09 07:09:17;;;;;;;5.78;3.60;;;;;;;17.48;33.05;97966.63;1863208;75;21334;-84
2021/05/09 07:12:01;;;;;;;6.92;3.90;;;;;;;17.52;32.78;97964.98;1822914;77;23072;-88
2021/05/09 07:14:39;;;;;;;4.87;4.05;;;;;;;17.74;32.76;97967.77;1823880;77;23180;-85
2021/05/09 07:17:18;;;;;;;6.83;3.75;;;;;;;17.30;32.98;97971.87;1820101;79;22958;-89
2021/05/09 07:19:59;;;;;;;5.22;3.52;;;;;;;16.65;34.03;97965.02;1824270;77;23019;-83
2021/05/09 07:22:40;;;;;;;8.58;5.00;;;;;;;16.44;34.67;97971.78;1813185;77;28069;-87
2021/05/09 07:25:14;;;;;;;6.60;4.97;;;;;;;16.33;34.88;97974.91;1803757;79;22862;-83
2021/05/09 07:27:51;;;;;;;6.37;5.12;;;;;;;16.44;35.17;97976.63;1832462;76;28539;-86
2021/05/09 07:30:34;;;;;;;5.83;4.12;;;;;;;16.40;34.80;97969.89;1824282;77;23527;-86
2021/05/09 07:33:13;;;;;;;8.73;3.65;;;;;;;16.44;35.10;97967.78;1815538;79;23051;-81
2021/05/09 07:35:53;;;;;;;8.43;4.00;;;;;;;16.46;34.67;97972.02;1816451;77;22726;-85
2021/05/09 07:38:31;;;;;;;6.47;4.00;;;;;;;16.22;35.21;97971.90;1850562;77;23320;-86
2021/05/09 07:41:08;;;;;;;6.75;4.40;;;;;;;16.22;35.41;97964.42;1824127;77;23402;-82
2021/05/09 07:43:49;;;;;;;6.83;4.28;;;;;;;16.32;36.24;97956.44;1824178;77;23175;-81
2021/05/09 07:46:26;;;;;;;5.75;4.10;;;;;;;16.76;35.57;97962.18;1775227;79;23086;-84
2021/05/09 07:49:06;;;;;;;5.17;3.77;;;;;;;16.90;35.50;97965.41;1771339;79;23139;-80
2021/05/09 07:51:49;;;;;;;3.98;3.35;;;;;;;16.74;35.04;97962.84;1823476;77;22882;-80
2021/05/09 07:54:26;;;;;;;5.85;3.52;;;;;;;16.53;35.08;97958.97;1801887;79;28591;-81
2021/05/09 07:57:06;;;;;;;8.70;3.58;;;;;;;16.88;35.09;97964.70;1850498;77;22747;-85
2021/05/09 07:59:43;;;;;;;6.22;3.60;;;;;;;16.70;34.49;97962.75;1800918;79;28146;-81
2021/05/09 08:02:21;;;;;;;4.33;2.77;;;;;;;16.64;35.56;97970.80;1780081;79;23220;-84
2021/05/09 08:05:00;;;;;;;4.37;2.45;;;;;;;16.60;33.99;97967.23;1821142;77;22512;-86
2021/05/09 08:07:54;;;;;;;4.35;2.98;;;;;;;16.63;33.52;97962.97;1827013;76;28606;-83
2021/05/09 08:10:36;;;;;;;10.23;2.10;;;;;;;16.66;33.26;97960.87;1794179;79;23330;-80
2021/05/09 08:13:13;;;;;;;6.30;2.90;;;;;;;16.68;33.19;97958.05;1823390;77;22314;-83
2021/05/09 08:15:50;;;;;;;3.33;2.40;;;;;;;16.95;33.79;97957.84;1824334;77;22639;-80
2021/05/09 08:18:33;;;;;;;2.20;1.32;;;;;;;17.24;31.11;97958.27;1816136;77;22735;-80
2021/05/09 08:21:10;;;;;;;3.45;1.62;;;;;;;17.53;30.83;97964.00;1824205;77;22640;-79
2021/05/09 08:23:49;;;;;;;2.37;1.40;;;;;;;17.84;30.47;97963.73;1838170;77;23510;-78
2021/05/09 08:26:28;;;;;;;3.10;1.40;;;;;;;18.00;30.49;97965.28;1832987;76;28108;-79
2021/05/09 08:29:09;;;;;;;4.10;1.67;;;;;;;18.01;27.90;97978.97;1800534;77;22797;-84
2021/05/09 08:31:53;;;;;;;3.08;1.22;;;;;;;17.54;29.53;97960.36;1823690;77;23117;-81
2021/05/09 08:34:36;;;;;;;;;;;;;;;17.45;29.22;97968.25;1826563;77;24265;-83
2021/05/09 08:37:13;;;;;;;2.10;1.20;;;;;;;17.33;30.07;97960.93;1850757;77;22592;-78
2021/05/09 08:39:50;;;;;;;1.92;1.10;;;;;;;17.35;28.93;97955.45;1823609;77;22167;-85
2021/05/09 08:42:27;;;;;;;3.92;1.50;;;;;;;17.26;28.11;97953.66;1765130;79;28192;-84
2021/05/09 08:45:08;;;;;;;1.85;1.10;;;;;;;17.24;28.58;97955.61;1824156;77;22648;-78
2021/05/09 08:47:50;;;;;;;4.50;1.30;;;;;;;16.90;28.50;97952.09;1824220;77;23076;-78
2021/05/09 08:50:28;;;;;;;1.70;1.27;;;;;;;16.85;29.72;97956.51;1780463;79;23073;-80
2021/05/09 08:53:10;;;;;;;1.98;1.35;;;;;;;16.81;29.34;97955.95;1823858;77;22577;-81
2021/05/09 08:55:50;;;;;;;2.62;1.47;;;;;;;16.72;29.90;97947.48;1824228;77;22676;-80
2021/05/09 08:58:32;;;;;;;2.90;1.37;;;;;;;16.63;30.36;97954.48;1824307;77;23019;-79
2021/05/09 09:01:09;;;;;;;1.87;1.30;;;;;;;16.50;29.86;97953.95;1829686;77;23108;-82
2021/05/09 09:03:46;;;;;;;2.25;1.40;;;;;;;16.37;29.67;97961.70;1801826;79;27959;-78
2021/05/09 09:06:48;;;;;;;2.05;1.32;;;;;;;16.66;29.80;97953.36;1804546;77;23467;-82
2021/05/09 09:09:29;;;;;;;1.22;0.90;;;;;;;16.61;29.20;97943.64;1780803;79;23029;-77
2021/05/09 09:12:10;;;;;;;2.20;1.40;;;;;;;16.57;28.68;97951.06;1824174;77;23425;-80
2021/05/09 09:15:00;;;;;;;2.42;1.27;;;;;;;16.42;29.89;97953.80;1824239;77;23302;-79
2021/05/09 09:17:42;;;;;;;1.20;0.75;;;;;;;16.49;28.73;97945.11;1813361;77;22693;-79
2021/05/09 09:20:19;;;;;;;3.22;1.42;;;;;;;16.59;29.20;97953.10;1833344;76;28472;-78
2021/05/09 09:25:41;;;;;;;2.10;1.42;;;;;;;16.61;29.03;97952.45;1779430;79;22676;-77
2021/05/09 09:28:18;;;;;;;1.95;1.40;;;;;;;16.45;29.54;97952.17;1802512;79;22674;-78
2021/05/09 09:30:55;;;;;;;2.00;1.20;;;;;;;16.29;28.66;97964.69;1832995;76;28091;-78
2021/05/09 09:33:32;;;;;;;2.17;1.30;;;;;;;16.27;29.35;97951.53;1812946;79;21674;-75
2021/05/09 09:36:19;;;;;;;2.52;1.30;;;;;;;16.00;30.43;97941.58;1822122;77;22927;-79
2021/05/09 09:38:57;;;;;;;2.37;1.37;;;;;;;15.90;31.06;97946.38;1768101;79;23088;-79
2021/05/09 09:41:34;;;;;;;2.55;1.30;;;;;;;15.84;30.87;97952.72;1840629;77;22401;-79
2021/05/09 09:44:18;;;;;;;7.58;1.65;;;;;;;15.78;29.55;97939.45;1820940;77;22764;-80
2021/05/09 09:46:57;;;;;;;3.92;1.60;;;;;;;15.69;30.28;97930.96;1815550;79;22958;-78
2021/05/09 09:49:39;;;;;;;4.35;1.57;;;;;;;15.75;29.98;97938.38;1824237;77;22737;-77
2021/05/09 09:52:16;;;;;;;2.80;1.90;;;;;;;15.68;30.82;97931.47;1832899;76;28094;-78
2021/05/09 09:54:53;;;;;;;3.40;1.22;;;;;;;15.81;30.62;97934.34;1803290;79;21269;-78
2021/05/09 09:57:31;;;;;;;2.67;1.42;;;;;;;15.77;30.57;97931.98;1796817;79;28177;-77
2021/05/09 10:00:14;;;;;;;1.98;1.50;;;;;;;15.85;29.94;97925.99;1816879;79;21671;-78
2021/05/09 10:02:55;;;;;;;2.33;1.37;;;;;;;15.65;29.93;97931.72;1819394;77;22717;-77
2021/05/09 10:05:33;;;;;;;2.83;1.42;;;;;;;15.74;30.51;97928.73;1815373;79;22822;-77
2021/05/09 10:08:10;;;;;;;3.65;1.55;;;;;;;15.81;30.17;97925.91;1821764;77;23181;-80
2021/05/09 10:10:47;;;;;;;3.60;1.30;;;;;;;15.90;30.19;97925.59;1793490;78;28684;-77
2021/05/09 10:13:29;;;;;;;1.92;1.17;;;;;;;16.04;29.57;97927.02;1808810;79;22765;-77
2021/05/09 10:16:09;;;;;;;2.80;1.07;;;;;;;16.10;29.60;97926.45;1791774;77;23051;-78
2021/05/09 10:18:51;;;;;;;2.40;1.20;;;;;;;16.07;29.54;97932.06;1771458;79;22867;-77
2021/05/09 10:21:35;;;;;;;0.90;0.62;;;;;;;15.97;28.09;97929.88;1850036;77;22643;-78
2021/05/09 10:24:22;;;;;;;9.08;4.28;;;;;;;15.95;29.19;97922.05;1811825;77;22461;-77
2021/05/09 10:27:11;;;;;;;1.90;1.30;;;;;;;15.93;29.72;97912.86;1799683;79;23097;-77
2021/05/09 10:29:49;;;;;;;1.95;1.57;;;;;;;15.93;29.34;97924.82;1816860;79;23067;-77
2021/05/09 10:32:38;;;;;;;3.33;1.02;;;;;;;15.77;28.84;97909.39;1816600;79;23057;-78
2021/05/09 10:35:16;;;;;;;1.50;1.07;;;;;;;15.80;29.40;97908.27;1849967;77;23119;-77
2021/05/09 10:37:59;;;;;;;2.05;1.00;;;;;;;15.75;29.48;97906.48;1814318;77;23006;-77
2021/05/09 10:40:42;;;;;;;1.47;0.90;;;;;;;15.84;29.39;97911.02;1815948;79;22669;-75
2021/05/09 10:43:27;;;;;;;3.47;1.25;;;;;;;15.90;29.29;97904.31;1792561;79;22618;-77
2021/05/09 10:46:07;;;;;;;2.25;1.30;;;;;;;15.98;29.82;97904.97;1847697;76;22384;-77
2021/05/09 10:48:44;;;;;;;1.82;1.00;;;;;;;15.91;29.27;97901.52;1814922;77;22610;-77
2021/05/09 10:51:26;;;;;;;2.75;1.52;;;;;;;15.97;29.59;97901.45;1803975;76;28044;-77
2021/05/09 10:54:21;;;;;;;2.20;1.30;;;;;;;16.05;28.93;97900.78;1776470;79;22608;-77
2021/05/09 10:56:58;;;;;;;2.42;1.25;;;;;;;16.08;28.68;97911.14;1815753;77;22528;-77
2021/05/09 10:59:59;;;;;;;2.70;1.50;;;;;;;16.02;28.32;97910.34;1786936;79;28583;-82
2021/05/09 11:02:37;;;;;;;2.62;1.65;;;;;;;16.21;29.09;97900.23;1787620;79;23247;-77
2021/05/09 11:05:14;;;;;;;5.47;1.40;;;;;;;16.12;29.45;97875.30;1832570;76;28637;-78
2021/05/09 11:07:51;;;;;;;3.00;1.40;;;;;;;16.44;28.91;97894.62;1825889;77;28038;-82
2021/05/09 11:10:39;;;;;;;2.02;1.32;;;;;;;16.49;28.77;97898.53;1802083;78;22739;-78
2021/05/09 11:13:15;;;;;;;5.22;1.30;;;;;;;16.48;28.93;97887.54;1791041;79;23480;-77
2021/05/09 11:16:18;;;;;;;2.10;1.32;;;;;;;16.51;28.77;97889.92;1825250;77;38503;-77
2021/05/09 11:19:08;;;;;;;1.82;1.35;;;;;;;16.60;28.56;97892.72;1826132;77;22527;-76
2021/05/09 11:21:49;;;;;;;3.40;1.10;;;;;;;16.36;28.83;97890.02;1771540;79;23090;-79
2021/05/09 11:24:31;;;;;;;3.08;1.12;;;;;;;16.22;28.87;97898.75;1810838;79;22689;-78
2021/05/09 11:27:12;;;;;;;2.17;1.22;;;;;;;16.15;29.18;97895.45;1822605;77;22801;-81
2021/05/09 11:29:51;;;;;;;2.02;1.22;;;;;;;16.18;29.47;97873.91;1822617;77;22903;-79
2021/05/09 11:32:32;;;;;;;2.35;1.30;;;;;;;16.16;29.20;97886.02;1820042;77;23630;-79
2021/05/09 11:35:10;;;;;;;1.60;1.20;;;;;;;16.26;29.64;97877.20;1823564;77;22830;-84
2021/05/09 11:37:49;;;;;;;2.12;1.20;;;;;;;16.29;29.52;97873.77;1818083;79;22488;-82
2021/05/09 11:40:27;;;;;;;2.80;1.40;;;;;;;16.32;28.99;97876.64;1822822;77;22921;-77
2021/05/09 11:43:13;;;;;;;3.15;1.40;;;;;;;16.22;28.79;97860.19;1826450;77;28217;-77
2021/05/09 11:45:49;;;;;;;5.58;1.50;;;;;;;16.42;29.35;97864.17;1813560;79;22709;-77
2021/05/09 11:48:25;;;;;;;3.05;1.20;;;;;;;16.48;29.17;97858.77;1768250;79;23136;-76
2021/05/09 11:51:04;;;;;;;4.30;1.30;;;;;;;16.59;29.28;97860.43;1823917;77;22640;-79
2021/05/09 11:53:40;;;;;;;2.50;1.40;;;;;;;16.63;29.08;97860.00;1799244;79;28641;-78
2021/05/09 11:56:19;;;;;;;2.20;1.25;;;;;;;16.78;29.00;97859.06;1819561;77;22779;-80
2021/05/09 11:58:57;;;;;;;2.05;1.25;;;;;;;16.80;28.41;97853.11;1835387;76;22319;-79
2021/05/09 12:01:35;;;;;;;2.20;1.15;;;;;;;16.82;28.94;97853.81;1837155;77;22700;-78
2021/05/09 12:04:13;;;;;;;;;;;;;;;16.90;29.30;97845.58;1798154;79;23517;-78
2021/05/09 12:06:50;;;;;;;1.98;1.30;;;;;;;16.98;29.46;97839.06;1832696;76;28554;-78
2021/05/09 12:09:29;;;;;;;1.98;1.25;;;;;;;17.20;29.16;97845.84;1839453;77;21241;-79
2021/05/09 12:12:09;;;;;;;3.60;1.07;;;;;;;17.14;28.59;97834.45;1824146;77;22775;-79
2021/05/09 12:14:46;;;;;;;2.08;1.10;;;;;;;17.14;28.01;97827.80;1775284;79;23037;-78
2021/05/09 12:17:26;;;;;;;2.55;1.20;;;;;;;17.30;28.83;97820.51;1819099;79;23446;-78
2021/05/09 12:20:05;;;;;;;1.90;1.05;;;;;;;17.39;29.03;97826.75;1808997;79;23244;-78
2021/05/09 12:22:42;;;;;;;6.42;1.50;;;;;;;17.42;28.75;97835.80;1759948;79;22866;-79
2021/05/09 12:25:37;;;;;;;2.65;1.00;;;;;;;17.30;28.32;97827.17;1797137;79;22683;-79
2021/05/09 12:28:18;;;;;;;1.40;1.02;;;;;;;17.38;27.75;97833.92;1779735;79;22647;-79
2021/05/09 12:31:09;;;;;;;1.57;1.22;;;;;;;17.47;28.40;97834.84;1815944;79;23515;-78
2021/05/09 12:36:30;;;;;;;3.65;1.30;;;;;;;17.22;27.43;97823.91;1765119;77;22783;-78
2021/05/09 12:39:20;;;;;;;1.95;1.30;;;;;;;17.28;27.08;97825.14;1826395;76;28203;-75
2021/05/09 12:42:02;;;;;;;3.75;1.20;;;;;;;17.32;27.39;97818.03;1823330;77;22379;-79
2021/05/09 12:44:39;;;;;;;1.80;1.12;;;;;;;17.29;27.71;97820.98;1850486;77;22541;-79
2021/05/09 12:47:22;;;;;;;2.02;1.00;;;;;;;17.35;28.12;97816.06;1819771;79;22099;-79
2021/05/09 12:49:59;;;;;;;1.70;1.10;;;;;;;17.29;26.88;97795.67;1770935;79;22686;-78
2021/05/09 12:52:46;;;;;;;2.67;1.10;;;;;;;17.38;27.15;97788.63;1833011;76;28067;-79
2021/05/09 12:55:25;;;;;;;1.70;1.12;;;;;;;17.68;27.46;97801.75;1826473;77;28227;-79